Time;durP1;ratioP1;P1;durP2;ratioP2;P2;SDS_P1;SDS_P2;PMS_P1;PMS_P2;Temp;Humidity;BMP_temperature;BMP_pressure;BME280_temperature;BME280_humidity;BME280_pressure;Samples;Min_cycle;Max_cycle;Signal;HPM_P1;HPM_P2
2021/12/20 00:11:13;;;;;;;16.10;8.23;;;;;;;3.52;100.00;98610.97;31278420;28;20048;-76
2021/12/20 00:26:15;;;;;;;15.83;7.33;;;;;;;3.56;100.00;98614.34;31287128;28;20053;-76
2021/12/20 00:41:17;;;;;;;13.30;7.50;;;;;;;3.57;100.00;98618.53;31306586;28;20517;-77
2021/12/20 00:56:19;;;;;;;15.97;7.33;;;;;;;3.58;100.00;98611.25;31306241;28;20057;-76
2021/12/20 01:11:25;;;;;;;13.60;7.03;;;;;;;3.59;100.00;98616.22;31298541;28;20056;-76
2021/12/20 01:26:27;;;;;;;13.57;6.67;;;;;;;3.57;100.00;98618.53;31300249;28;20052;-77
2021/12/20 01:41:28;;;;;;;11.93;6.03;;;;;;;3.52;100.00;98621.72;31301477;28;20060;-75
2021/12/20 01:56:33;;;;;;;8.83;5.50;;;;;;;3.45;100.00;98619.13;31309055;28;20092;-75
2021/12/20 02:11:37;;;;;;;12.97;5.90;;;;;;;3.40;100.00;98619.56;31289912;28;20044;-76
2021/12/20 02:26:39;;;;;;;11.37;5.30;;;;;;;3.43;100.00;98632.94;31278547;28;20060;-76
2021/12/20 02:41:42;;;;;;;12.03;5.53;;;;;;;3.26;100.00;98646.63;31311344;28;20049;-74
2021/12/20 02:56:44;;;;;;;7.93;4.33;;;;;;;3.16;100.00;98661.66;31286672;28;20053;-76
2021/12/20 03:11:48;;;;;;;9.87;4.20;;;;;;;3.11;100.00;98664.03;31292640;28;20056;-76
2021/12/20 03:26:49;;;;;;;6.87;4.33;;;;;;;3.06;100.00;98676.75;31285022;28;20049;-75
2021/12/20 03:41:51;;;;;;;11.73;4.60;;;;;;;2.93;100.00;98699.88;31292975;28;20037;-76
2021/12/20 03:56:53;;;;;;;11.13;5.77;;;;;;;2.71;100.00;98707.38;31271803;28;20049;-75
2021/12/20 04:11:56;;;;;;;12.50;5.93;;;;;;;2.64;100.00;98720.06;31311504;28;20456;-75
2021/12/20 04:26:58;;;;;;;8.90;5.23;;;;;;;2.54;100.00;98753.88;31299878;28;20049;-74
2021/12/20 04:42:00;;;;;;;10.20;5.80;;;;;;;2.50;100.00;98773.78;31297382;28;20045;-74
2021/12/20 04:57:02;;;;;;;8.10;4.23;;;;;;;2.29;100.00;98785.44;31290021;28;20053;-75
2021/12/20 05:12:13;;;;;;;6.87;4.00;;;;;;;2.29;100.00;98786.22;31320201;28;20037;-75
2021/12/20 05:27:14;;;;;;;7.50;3.80;;;;;;;2.30;100.00;98795.75;31315813;28;20053;-74
2021/12/20 05:42:16;;;;;;;7.73;3.70;;;;;;;2.42;100.00;98809.81;31290583;28;20053;-74
2021/12/20 05:57:18;;;;;;;6.47;3.77;;;;;;;2.51;100.00;98826.22;31277971;28;20749;-74
2021/12/20 06:12:20;;;;;;;9.13;3.87;;;;;;;3.29;96.05;98855.78;31351578;28;20410;-78
2021/12/20 06:27:22;;;;;;;8.93;4.40;;;;;;;4.86;88.75;98837.53;31307830;28;20053;-74
2021/12/20 06:42:24;;;;;;;5.87;3.60;;;;;;;5.87;81.67;98838.72;31318354;28;20056;-75
2021/12/20 06:57:26;;;;;;;6.27;3.60;;;;;;;8.69;75.11;98849.09;31302229;28;20110;-74
2021/12/20 07:12:29;;;;;;;5.47;2.97;;;;;;;8.66;67.94;98863.47;31308369;28;20057;-77
2021/12/20 07:27:31;;;;;;;6.50;2.97;;;;;;;4.99;84.35;98906.44;31283180;28;20133;-77
2021/12/20 07:42:34;;;;;;;5.23;3.40;;;;;;;4.13;88.92;98919.59;31335527;28;20040;-79
2021/12/20 07:57:37;;;;;;;7.30;3.43;;;;;;;3.98;88.85;98907.53;31319566;28;20119;-78
2021/12/20 08:12:38;;;;;;;3.17;2.47;;;;;;;4.18;87.88;98919.16;31336645;28;20049;-79
2021/12/20 08:27:42;;;;;;;3.37;2.43;;;;;;;4.00;86.13;98924.75;31317080;28;20057;-78
2021/12/20 08:42:45;;;;;;;7.17;2.50;;;;;;;3.84;87.82;98915.72;31343711;28;20044;-80
2021/12/20 08:57:47;;;;;;;4.67;2.73;;;;;;;3.85;87.87;98911.88;31332847;28;20057;-75
2021/12/20 09:12:49;;;;;;;6.30;2.87;;;;;;;3.86;90.30;98924.91;31323141;28;20096;-75
2021/12/20 09:27:53;;;;;;;6.03;2.30;;;;;;;3.60;89.94;98918.28;31311356;28;20054;-75
2021/12/20 09:42:55;;;;;;;4.47;2.20;;;;;;;4.99;84.73;98901.06;31328734;28;20053;-75
2021/12/20 09:58:00;;;;;;;2.83;1.80;;;;;;;4.65;82.05;98897.78;31310865;28;20515;-76
2021/12/20 10:13:02;;;;;;;2.23;1.40;;;;;;;4.40;84.45;98920.41;31323588;28;20376;-75
2021/12/20 10:28:07;;;;;;;1.60;1.33;;;;;;;5.88;78.30;98904.88;31305346;28;20049;-76
2021/12/20 10:43:14;;;;;;;1.77;1.60;;;;;;;6.20;74.26;98912.31;31319296;28;20048;-74
2021/12/20 10:58:20;;;;;;;4.63;2.20;;;;;;;5.90;73.29;98934.13;31321844;28;20065;-75
2021/12/20 11:13:22;;;;;;;;;;;;;;;5.37;72.72;98935.81;31308343;28;20045;-75
2021/12/20 11:28:24;;;;;;;6.07;3.53;;;;;;;5.00;78.85;98934.09;31345660;28;19920;-76
2021/12/20 11:43:26;;;;;;;5.07;2.93;;;;;;;6.22;73.24;98931.53;31339884;28;20401;-75
2021/12/20 11:58:32;;;;;;;3.53;2.20;;;;;;;6.78;69.22;98944.97;31318769;28;20060;-74
2021/12/20 12:13:46;;;;;;;3.47;2.50;;;;;;;6.39;65.76;98960.03;31339917;28;20387;-75
2021/12/20 12:28:56;;;;;;;4.43;2.90;;;;;;;5.67;69.23;98972.59;31343282;28;20407;-75
2021/12/20 12:44:03;;;;;;;5.07;2.87;;;;;;;6.53;71.05;98969.00;31347621;28;20064;-75
2021/12/20 12:59:14;;;;;;;3.83;3.13;;;;;;;4.81;72.05;99002.78;31312123;28;20060;-75
2021/12/20 13:14:19;;;;;;;7.20;2.50;;;;;;;3.97;74.82;99021.47;31342516;28;20049;-76
2021/12/20 13:29:20;;;;;;;8.27;4.00;;;;;;;3.53;78.31;99036.44;31324579;28;20049;-75
2021/12/20 13:44:26;;;;;;;8.97;4.37;;;;;;;3.38;80.91;99045.75;31342496;28;20045;-75
2021/12/20 13:59:37;;;;;;;9.67;3.20;;;;;;;3.26;82.15;99051.59;31341106;28;20085;-75
2021/12/20 14:14:56;;;;;;;5.40;2.90;;;;;;;3.01;81.65;99055.22;31322704;28;20141;-76
2021/12/20 14:29:58;;;;;;;11.30;7.20;;;;;;;2.92;84.31;99064.81;31329342;28;20144;-76
2021/12/20 14:45:07;;;;;;;10.50;5.33;;;;;;;2.92;86.00;99068.28;31298046;28;20071;-77
2021/12/20 15:00:09;;;;;;;9.27;4.50;;;;;;;2.48;87.89;99079.56;31327716;28;20049;-76
2021/12/20 15:15:12;;;;;;;8.23;4.53;;;;;;;2.40;88.05;99094.91;31322031;28;20469;-75
2021/12/20 15:30:14;;;;;;;10.73;4.67;;;;;;;2.39;86.16;99111.34;31341816;28;20450;-76
2021/12/20 15:45:16;;;;;;;12.27;3.47;;;;;;;2.29;88.63;99104.88;31296544;28;20161;-75
2021/12/20 16:00:18;;;;;;;9.17;4.20;;;;;;;2.35;89.13;99124.78;31356964;28;20171;-76
2021/12/20 16:15:20;;;;;;;8.30;3.93;;;;;;;2.43;89.80;99127.41;31301674;28;20055;-77
2021/12/20 16:30:25;;;;;;;5.33;2.70;;;;;;;2.46;89.96;99140.03;31337904;28;20048;-76
2021/12/20 16:45:51;;;;;;;3.33;2.40;;;;;;;2.36;89.03;99153.06;31335935;28;20395;-75
2021/12/20 17:01:00;;;;;;;3.40;2.10;;;;;;;2.38;88.76;99156.13;31305060;28;20057;-76
2021/12/20 17:16:02;;;;;;;2.83;2.00;;;;;;;2.27;87.82;99157.31;31337046;28;20055;-76
2021/12/20 17:31:04;;;;;;;4.10;2.30;;;;;;;2.43;89.27;99159.56;31357043;28;20087;-76
2021/12/20 17:46:09;;;;;;;2.87;1.93;;;;;;;2.27;88.29;99170.69;31336973;28;20079;-76
2021/12/20 18:01:13;;;;;;;3.23;1.83;;;;;;;2.20;88.23;99163.44;31302169;28;20057;-77
2021/12/20 18:16:16;;;;;;;3.10;2.20;;;;;;;2.20;87.61;99174.13;31291701;28;20135;-75
2021/12/20 18:31:19;;;;;;;4.60;2.67;;;;;;;2.12;87.44;99187.94;31319188;28;20143;-76
2021/12/20 18:46:21;;;;;;;8.87;4.47;;;;;;;2.00;89.60;99197.09;31314027;28;20064;-75
2021/12/20 19:01:25;;;;;;;11.93;5.70;;;;;;;2.00;89.74;99200.53;31320501;28;20077;-77
2021/12/20 19:16:27;;;;;;;11.37;4.90;;;;;;;1.80;89.37;99215.44;31291297;28;20049;-75
2021/12/20 19:31:29;;;;;;;8.53;3.70;;;;;;;1.73;89.49;99230.69;31306882;28;20061;-76
2021/12/20 19:46:31;;;;;;;5.30;3.60;;;;;;;1.75;89.25;99233.78;31330228;28;20061;-77
2021/12/20 20:01:34;;;;;;;4.93;3.57;;;;;;;1.67;88.83;99244.44;31306015;28;20063;-74
2021/12/20 20:16:36;;;;;;;6.87;4.60;;;;;;;1.58;89.32;99252.09;31297718;28;20132;-78
2021/12/20 20:31:38;;;;;;;10.73;4.67;;;;;;;1.41;91.46;99254.72;31316291;28;20056;-77
2021/12/20 20:46:42;;;;;;;8.07;4.00;;;;;;;1.56;91.73;99254.38;31314030;28;20561;-75
2021/12/20 21:01:45;;;;;;;6.17;3.83;;;;;;;1.58;92.23;99262.03;31350872;28;20060;-75
2021/12/20 21:16:50;;;;;;;7.00;2.90;;;;;;;1.53;91.92;99268.50;31311241;28;20041;-76
2021/12/20 21:31:56;;;;;;;6.83;3.53;;;;;;;1.49;92.58;99272.28;31377486;28;20064;-77
2021/12/20 21:46:58;;;;;;;6.70;3.90;;;;;;;1.26;92.53;99285.97;31287990;28;20055;-76
2021/12/20 22:02:00;;;;;;;8.90;3.17;;;;;;;1.15;92.62;99287.81;31293411;28;20057;-74
2021/12/20 22:17:03;;;;;;;10.50;3.10;;;;;;;1.09;92.67;99289.31;31300134;28;20517;-74
2021/12/20 22:32:05;;;;;;;5.17;2.90;;;;;;;1.03;92.75;99291.56;31285687;28;20054;-77
2021/12/20 22:47:07;;;;;;;6.43;3.00;;;;;;;1.19;92.96;99293.94;31319760;28;20103;-75
2021/12/20 23:02:09;;;;;;;4.93;2.90;;;;;;;1.15;92.76;99304.63;31309049;28;20057;-76
2021/12/20 23:17:11;;;;;;;5.67;3.40;;;;;;;1.03;93.18;99310.28;31274592;28;20049;-76
2021/12/20 23:32:13;;;;;;;7.93;4.17;;;;;;;0.96;93.37;99323.59;31289672;28;20049;-76
2021/12/20 23:47:15;;;;;;;10.03;4.03;;;;;;;0.87;94.21;99342.63;31335291;28;20879;-75
